createdAt,value
2018-09-14T00:01:43.841Z,3.83
2018-09-14T00:04:12.472Z,4.00
2018-09-14T00:06:40.880Z,4.10
2018-09-14T00:09:11.581Z,4.07
2018-09-14T00:11:39.960Z,3.87
2018-09-14T00:14:08.538Z,3.70
2018-09-14T00:16:37.436Z,3.90
2018-09-14T00:19:06.338Z,3.60
2018-09-14T00:21:34.698Z,4.23
2018-09-14T00:24:03.102Z,3.97
2018-09-14T00:26:31.796Z,3.17
2018-09-14T00:29:00.317Z,3.90
2018-09-14T00:31:28.786Z,3.87
2018-09-14T00:33:58.176Z,3.80
2018-09-14T00:36:26.533Z,3.57
2018-09-14T00:38:55.292Z,3.93
2018-09-14T00:41:23.890Z,3.47
2018-09-14T00:43:52.620Z,3.53
2018-09-14T00:46:20.982Z,3.23
2018-09-14T00:48:49.591Z,4.83
2018-09-14T00:51:18.069Z,3.60
2018-09-14T00:53:46.428Z,3.50
2018-09-14T00:56:14.791Z,3.60
2018-09-14T00:58:43.284Z,3.20
2018-09-14T01:01:11.821Z,3.30
2018-09-14T01:03:40.244Z,3.53
2018-09-14T01:06:08.655Z,3.50
2018-09-14T01:08:37.245Z,3.30
2018-09-14T01:11:05.777Z,3.87
2018-09-14T01:13:34.417Z,3.20
2018-09-14T01:16:02.852Z,3.77
2018-09-14T01:18:31.396Z,3.17
2018-09-14T01:20:59.828Z,3.57
2018-09-14T01:23:28.288Z,4.23
2018-09-14T01:25:56.783Z,3.57
2018-09-14T01:28:25.220Z,3.30
2018-09-14T01:30:53.709Z,3.43
2018-09-14T01:33:22.214Z,3.57
2018-09-14T01:35:56.321Z,3.40
2018-09-14T01:38:24.950Z,3.03
2018-09-14T01:40:53.409Z,3.20
2018-09-14T01:43:21.851Z,3.10
2018-09-14T01:45:50.680Z,3.83
2018-09-14T01:48:19.241Z,2.80
2018-09-14T01:50:47.815Z,3.77
2018-09-14T01:53:16.582Z,3.27
2018-09-14T01:55:45.087Z,3.50
2018-09-14T01:58:13.636Z,3.53
2018-09-14T02:00:42.021Z,2.97
2018-09-14T02:03:10.530Z,3.30
2018-09-14T02:05:39.040Z,3.40
2018-09-14T02:08:07.505Z,3.70
2018-09-14T02:10:35.942Z,3.37
2018-09-14T02:13:04.333Z,3.00
2018-09-14T02:15:32.725Z,3.80
2018-09-14T02:18:01.181Z,3.70
2018-09-14T02:20:29.655Z,3.50
2018-09-14T02:22:58.131Z,3.53
2018-09-14T02:25:26.585Z,3.73
2018-09-14T02:27:55.108Z,4.20
2018-09-14T02:30:23.589Z,3.43
2018-09-14T02:32:52.115Z,3.27
2018-09-14T02:35:20.648Z,3.60
2018-09-14T02:37:49.027Z,3.20
2018-09-14T02:40:17.534Z,4.20
2018-09-14T02:42:45.952Z,3.43
2018-09-14T02:45:14.378Z,4.10
2018-09-14T02:47:42.935Z,3.73
2018-09-14T02:50:11.660Z,4.03
2018-09-14T02:52:40.342Z,3.53
2018-09-14T02:55:08.869Z,4.47
2018-09-14T02:57:37.343Z,3.80
2018-09-14T03:00:06.116Z,4.10
2018-09-14T03:02:34.636Z,3.93
2018-09-14T03:05:03.169Z,4.40
2018-09-14T03:07:31.600Z,4.07
2018-09-14T03:10:00.076Z,4.00
2018-09-14T03:12:28.601Z,3.80
2018-09-14T03:14:57.344Z,4.47
2018-09-14T03:17:25.961Z,4.10
2018-09-14T03:19:54.436Z,4.23
2018-09-14T03:22:22.945Z,3.73
2018-09-14T03:24:51.380Z,3.93
2018-09-14T03:27:19.856Z,4.73
2018-09-14T03:29:48.707Z,3.70
2018-09-14T03:32:17.269Z,4.80
2018-09-14T03:34:45.500Z,4.80
2018-09-14T03:37:13.988Z,4.37
2018-09-14T03:39:42.484Z,4.57
2018-09-14T03:42:11.001Z,3.63
2018-09-14T03:44:39.469Z,4.10
2018-09-14T03:47:07.907Z,4.30
2018-09-14T03:49:36.610Z,4.83
2018-09-14T03:52:05.253Z,4.83
2018-09-14T03:54:33.655Z,4.20
2018-09-14T03:57:04.697Z,4.53
2018-09-14T03:59:35.268Z,5.00
2018-09-14T04:02:04.115Z,4.10
2018-09-14T04:04:32.598Z,5.00
2018-09-14T04:07:00.955Z,4.70
2018-09-14T04:09:29.477Z,4.83
2018-09-14T04:11:58.257Z,4.73
2018-09-14T04:14:26.729Z,5.30
2018-09-14T04:16:55.292Z,5.20
2018-09-14T04:19:23.742Z,5.17
2018-09-14T04:21:52.280Z,5.23
2018-09-14T04:24:21.089Z,4.70
2018-09-14T04:26:49.573Z,5.33
2018-09-14T04:29:18.025Z,5.17
2018-09-14T04:31:46.533Z,5.40
2018-09-14T04:34:14.970Z,5.33
2018-09-14T04:36:43.744Z,4.77
2018-09-14T04:39:12.158Z,5.00
2018-09-14T04:41:40.620Z,4.77
2018-09-14T04:44:09.115Z,5.00
2018-09-14T04:46:37.486Z,4.90
2018-09-14T04:49:05.862Z,5.00
2018-09-14T04:51:34.332Z,5.17
2018-09-14T04:54:02.812Z,5.30
2018-09-14T04:56:31.348Z,5.10
2018-09-14T04:58:59.840Z,5.20
2018-09-14T05:01:28.269Z,5.23
2018-09-14T05:03:56.981Z,6.20
2018-09-14T05:06:25.438Z,4.53
2018-09-14T05:08:53.826Z,5.30
2018-09-14T05:11:22.381Z,4.87
2018-09-14T05:13:50.888Z,5.73
2018-09-14T05:16:19.290Z,5.00
2018-09-14T05:18:50.162Z,5.93
2018-09-14T05:21:18.578Z,5.40
2018-09-14T05:23:47.043Z,5.37
2018-09-14T05:26:15.552Z,5.60
2018-09-14T05:28:43.980Z,5.43
2018-09-14T05:31:12.473Z,5.90
2018-09-14T05:33:40.968Z,5.00
2018-09-14T05:36:09.360Z,4.80
2018-09-14T05:38:37.774Z,5.80
2018-09-14T05:41:06.277Z,5.13
2018-09-14T05:43:34.663Z,4.40
2018-09-14T05:46:03.164Z,5.50
2018-09-14T05:48:31.747Z,4.43
2018-09-14T05:51:00.333Z,4.73
2018-09-14T05:53:28.784Z,5.20
2018-09-14T05:55:57.261Z,4.63
2018-09-14T05:58:25.745Z,5.60
2018-09-14T06:00:54.322Z,4.33
2018-09-14T06:03:22.881Z,3.73
2018-09-14T06:05:51.385Z,4.93
2018-09-14T06:08:19.864Z,4.50
2018-09-14T06:10:48.399Z,4.07
2018-09-14T06:13:16.825Z,4.97
2018-09-14T06:15:45.284Z,4.23
2018-09-14T06:18:13.792Z,5.20
2018-09-14T06:20:42.328Z,4.67
2018-09-14T06:23:10.759Z,5.10
2018-09-14T06:25:44.155Z,4.97
2018-09-14T06:28:12.574Z,5.37
2018-09-14T06:30:41.741Z,4.53
2018-09-14T06:33:10.228Z,6.40
2018-09-14T06:35:38.736Z,5.20
2018-09-14T06:38:07.179Z,5.30
2018-09-14T06:40:35.652Z,5.53
2018-09-14T06:43:04.133Z,5.10
2018-09-14T06:45:32.703Z,5.33
2018-09-14T06:48:01.094Z,4.97
2018-09-14T06:50:29.561Z,5.10
2018-09-14T06:52:58.049Z,4.50
2018-09-14T06:55:26.722Z,6.10
2018-09-14T06:57:55.326Z,4.87
2018-09-14T07:00:24.165Z,5.53
2018-09-14T07:02:52.478Z,5.20
2018-09-14T07:05:20.874Z,5.57
2018-09-14T07:07:50.190Z,6.00
2018-09-14T07:10:18.713Z,5.70
2018-09-14T07:12:47.144Z,6.83
2018-09-14T07:15:15.665Z,5.97
2018-09-14T07:17:44.042Z,6.60
2018-09-14T07:20:12.582Z,6.70
2018-09-14T07:22:41.058Z,5.87
2018-09-14T07:25:09.756Z,5.87
2018-09-14T07:27:38.378Z,5.80
2018-09-14T07:30:06.968Z,6.27
2018-09-14T07:32:35.731Z,5.80
2018-09-14T07:35:04.277Z,5.80
2018-09-14T07:37:32.740Z,5.67
2018-09-14T07:40:01.220Z,6.70
2018-09-14T07:42:29.761Z,5.10
2018-09-14T07:44:58.217Z,5.83
2018-09-14T07:47:26.674Z,5.80
2018-09-14T07:49:55.142Z,6.40
2018-09-14T07:52:23.654Z,6.30
2018-09-14T07:54:52.105Z,6.07
2018-09-14T07:57:20.493Z,5.10
2018-09-14T07:59:49.082Z,5.97
2018-09-14T08:02:17.793Z,6.10
2018-09-14T08:04:46.351Z,5.67
2018-09-14T08:07:14.916Z,5.70
2018-09-14T08:09:43.397Z,5.20
2018-09-14T08:12:11.853Z,5.73
2018-09-14T08:14:40.380Z,5.33
2018-09-14T08:17:08.976Z,6.60
2018-09-14T08:19:37.517Z,6.73
2018-09-14T08:22:06.100Z,5.47
2018-09-14T08:24:34.570Z,5.97
2018-09-14T08:27:03.038Z,5.90
2018-09-14T08:29:31.625Z,5.60
2018-09-14T08:32:00.129Z,5.57
2018-09-14T08:34:29.660Z,6.10
2018-09-14T08:36:58.418Z,5.80
2018-09-14T08:39:27.016Z,6.03
2018-09-14T08:41:55.551Z,6.80
2018-09-14T08:44:24.009Z,5.13
2018-09-14T08:46:52.461Z,4.90
2018-09-14T08:49:20.952Z,6.97
2018-09-14T08:51:49.345Z,7.33
2018-09-14T08:54:17.856Z,6.70
2018-09-14T08:56:46.448Z,6.83
2018-09-14T08:59:14.891Z,6.13
2018-09-14T09:01:43.344Z,6.00
2018-09-14T09:04:14.299Z,6.37
2018-09-14T09:06:42.755Z,5.70
2018-09-14T09:09:12.853Z,5.43
2018-09-14T09:11:41.824Z,4.80
2018-09-14T09:14:10.286Z,4.93
2018-09-14T09:16:39.506Z,5.07
2018-09-14T09:19:08.384Z,4.67
2018-09-14T09:21:37.200Z,4.77
2018-09-14T09:24:05.700Z,4.57
2018-09-14T09:26:34.285Z,5.07
2018-09-14T09:29:02.809Z,4.43
2018-09-14T09:31:31.323Z,4.97
2018-09-14T09:33:59.705Z,5.03
2018-09-14T09:36:28.784Z,4.93
2018-09-14T09:38:57.780Z,4.83
2018-09-14T09:41:26.183Z,4.00
2018-09-14T09:43:54.625Z,4.70
2018-09-14T09:46:23.173Z,5.00
2018-09-14T09:48:51.686Z,4.60
2018-09-14T09:51:20.256Z,4.57
2018-09-14T09:53:48.552Z,4.70
2018-09-14T09:56:17.132Z,4.70
2018-09-14T09:58:45.581Z,4.70
2018-09-14T10:01:19.374Z,4.30
2018-09-14T10:03:53.436Z,4.27
2018-09-14T10:06:23.999Z,4.13
2018-09-14T10:08:52.959Z,4.30
2018-09-14T10:11:21.880Z,4.60
2018-09-14T10:13:50.362Z,4.30
2018-09-14T10:16:18.987Z,4.57
2018-09-14T10:18:47.555Z,3.93
2018-09-14T10:21:16.124Z,4.10
2018-09-14T10:23:44.451Z,6.27
2018-09-14T10:26:14.204Z,4.53
2018-09-14T10:28:42.715Z,4.13
2018-09-14T10:31:11.369Z,4.40
2018-09-14T10:33:39.882Z,4.10
2018-09-14T10:36:08.340Z,4.20
2018-09-14T10:38:36.812Z,4.27
2018-09-14T10:41:05.316Z,4.20
2018-09-14T10:43:33.757Z,3.80
2018-09-14T10:46:02.251Z,3.90
2018-09-14T10:48:37.809Z,4.10
2018-09-14T10:51:06.594Z,4.17
2018-09-14T10:53:35.165Z,4.60
2018-09-14T10:56:03.572Z,4.33
2018-09-14T10:58:37.280Z,4.00
2018-09-14T11:01:05.992Z,3.67
2018-09-14T11:03:34.488Z,4.60
2018-09-14T11:06:02.967Z,3.97
2018-09-14T11:08:31.476Z,3.90
2018-09-14T11:11:00.497Z,3.73
2018-09-14T11:13:29.053Z,4.20
2018-09-14T11:15:57.496Z,3.93
2018-09-14T11:18:25.960Z,4.23
2018-09-14T11:20:54.482Z,4.50
2018-09-14T11:23:23.031Z,4.73
2018-09-14T11:25:56.370Z,3.80
2018-09-14T11:28:26.312Z,5.30
2018-09-14T11:30:55.273Z,4.03
2018-09-14T11:33:23.692Z,3.90
2018-09-14T11:35:52.153Z,3.60
2018-09-14T11:38:20.633Z,3.50
2018-09-14T11:40:49.500Z,3.90
2018-09-14T11:43:17.975Z,3.80
2018-09-14T11:45:46.483Z,4.27
2018-09-14T11:48:14.991Z,4.40
2018-09-14T11:50:43.396Z,3.30
2018-09-14T11:53:11.909Z,3.80
2018-09-14T11:55:40.360Z,4.63
2018-09-14T11:58:08.879Z,3.73
2018-09-14T12:00:37.565Z,3.47
2018-09-14T12:03:05.976Z,3.60
2018-09-14T12:05:34.669Z,3.63
2018-09-14T12:08:03.160Z,3.53
2018-09-14T12:10:31.644Z,3.83
2018-09-14T12:13:00.133Z,3.80
2018-09-14T12:15:28.611Z,3.40
2018-09-14T12:17:57.079Z,3.80
2018-09-14T12:20:25.559Z,4.10
2018-09-14T12:22:54.329Z,3.40
2018-09-14T12:25:22.772Z,3.37
2018-09-14T12:27:51.356Z,3.80
2018-09-14T12:30:19.928Z,3.40
2018-09-14T12:32:48.408Z,3.50
2018-09-14T12:35:16.857Z,4.23
2018-09-14T12:37:45.351Z,3.57
2018-09-14T12:40:13.840Z,3.30
2018-09-14T12:42:42.572Z,3.50
2018-09-14T12:45:10.984Z,3.93
2018-09-14T12:47:39.643Z,4.00
2018-09-14T12:50:08.176Z,3.70
2018-09-14T12:52:36.672Z,4.00
2018-09-14T12:55:05.073Z,3.80
2018-09-14T12:57:33.637Z,3.60
2018-09-14T13:00:02.199Z,3.20
2018-09-14T13:02:30.778Z,3.57
2018-09-14T13:04:59.228Z,3.77
2018-09-14T13:07:27.956Z,3.60
2018-09-14T13:09:56.328Z,4.10
2018-09-14T13:12:24.696Z,3.83
2018-09-14T13:14:53.208Z,3.37
2018-09-14T13:17:21.635Z,3.60
2018-09-14T13:19:50.152Z,3.30
2018-09-14T13:22:18.710Z,3.70
2018-09-14T13:24:47.397Z,3.30
2018-09-14T13:27:16.049Z,3.97
2018-09-14T13:29:44.440Z,3.30
2018-09-14T13:32:12.852Z,4.10
2018-09-14T13:34:41.545Z,3.53
2018-09-14T13:37:10.278Z,3.63
2018-09-14T13:39:38.793Z,2.90
2018-09-14T13:42:07.347Z,3.07
2018-09-14T13:44:35.773Z,3.47
2018-09-14T13:47:04.216Z,3.20
2018-09-14T13:49:32.692Z,3.57
2018-09-14T13:52:01.165Z,3.23
2018-09-14T13:54:29.713Z,3.13
2018-09-14T13:56:58.211Z,3.20
2018-09-14T13:59:26.849Z,2.93
2018-09-14T14:01:55.316Z,2.90
2018-09-14T14:04:23.868Z,3.00
2018-09-14T14:06:52.331Z,3.27
2018-09-14T14:09:20.729Z,3.43
2018-09-14T14:11:49.226Z,3.30
2018-09-14T14:14:17.728Z,3.60
2018-09-14T14:16:46.339Z,3.53
2018-09-14T14:19:15.124Z,3.10
2018-09-14T14:21:43.560Z,3.13
2018-09-14T14:24:12.080Z,3.43
2018-09-14T14:26:40.605Z,3.17
2018-09-14T14:29:08.994Z,3.47
2018-09-14T14:31:37.452Z,3.33
2018-09-14T14:34:05.944Z,2.83
2018-09-14T14:36:34.317Z,3.90
2018-09-14T14:39:03.040Z,3.43
2018-09-14T14:41:31.711Z,3.10
2018-09-14T14:44:00.064Z,3.07
2018-09-14T14:46:28.568Z,3.13
2018-09-14T14:48:57.064Z,3.20
2018-09-14T14:51:25.633Z,2.93
2018-09-14T14:53:54.204Z,3.30
2018-09-14T14:56:22.745Z,3.17
2018-09-14T14:58:51.160Z,2.67
2018-09-14T15:01:19.620Z,3.27
2018-09-14T15:03:48.155Z,3.23
2018-09-14T15:06:16.690Z,2.70
2018-09-14T15:08:45.159Z,2.80
2018-09-14T15:11:14.415Z,3.10
2018-09-14T15:13:43.152Z,3.00
2018-09-14T15:16:11.764Z,3.17
2018-09-14T15:18:40.270Z,2.90
2018-09-14T15:21:08.715Z,3.40
2018-09-14T15:23:37.225Z,2.80
2018-09-14T15:26:05.692Z,2.90
2018-09-14T15:28:34.198Z,2.70
2018-09-14T15:31:02.691Z,3.20
2018-09-14T15:33:31.172Z,2.67
2018-09-14T15:35:59.762Z,3.60
2018-09-14T15:38:28.245Z,3.10
2018-09-14T15:40:56.707Z,3.07
2018-09-14T15:43:25.733Z,2.93
2018-09-14T15:45:54.304Z,3.23
2018-09-14T15:48:22.947Z,3.00
2018-09-14T15:50:51.461Z,3.03
2018-09-14T15:53:20.037Z,2.43
2018-09-14T15:55:48.506Z,3.40
2018-09-14T15:58:17.100Z,2.57
2018-09-14T16:00:45.604Z,2.57
2018-09-14T16:03:14.040Z,3.00
2018-09-14T16:05:42.572Z,3.13
2018-09-14T16:08:11.022Z,2.77
2018-09-14T16:10:39.524Z,3.10
2018-09-14T16:13:08.209Z,2.73
2018-09-14T16:15:36.717Z,2.63
2018-09-14T16:18:05.468Z,2.40
2018-09-14T16:20:34.039Z,2.87
2018-09-14T16:23:02.807Z,2.47
2018-09-14T16:25:31.220Z,2.87
2018-09-14T16:27:59.677Z,2.50
2018-09-14T16:30:28.352Z,2.73
2018-09-14T16:32:56.940Z,3.07
2018-09-14T16:35:26.056Z,2.70
2018-09-14T16:37:54.991Z,2.87
2018-09-14T16:40:23.578Z,2.60
2018-09-14T16:42:52.236Z,2.53
2018-09-14T16:45:20.781Z,2.63
2018-09-14T16:47:49.156Z,2.53
2018-09-14T16:50:17.945Z,3.00
2018-09-14T16:52:46.356Z,2.80
2018-09-14T16:55:14.888Z,2.67
2018-09-14T16:57:43.512Z,3.07
2018-09-14T17:00:11.983Z,2.60
2018-09-14T17:02:40.679Z,2.60
2018-09-14T17:05:09.156Z,2.80
2018-09-14T17:07:37.674Z,2.73
2018-09-14T17:10:08.558Z,3.20
2018-09-14T17:12:37.041Z,2.70
2018-09-14T17:15:05.908Z,2.67
2018-09-14T17:17:34.416Z,3.23
2018-09-14T17:20:02.940Z,3.60
2018-09-14T17:22:31.366Z,3.43
2018-09-14T17:24:59.906Z,3.00
2018-09-14T17:27:28.571Z,2.97
2018-09-14T17:29:57.044Z,3.57
2018-09-14T17:32:25.548Z,3.20
2018-09-14T17:34:54.024Z,3.63
2018-09-14T17:37:22.681Z,3.83
2018-09-14T17:39:51.191Z,3.33
2018-09-14T17:42:19.666Z,3.30
2018-09-14T17:44:48.129Z,2.87
2018-09-14T17:47:16.640Z,3.50
2018-09-14T17:49:46.265Z,3.20
2018-09-14T17:52:14.778Z,3.70
2018-09-14T17:54:43.324Z,3.90
2018-09-14T17:57:11.728Z,3.57
2018-09-14T17:59:40.204Z,3.80
2018-09-14T18:02:08.684Z,4.30
2018-09-14T18:04:37.160Z,3.20
2018-09-14T18:07:06.256Z,3.47
2018-09-14T18:09:35.822Z,3.80
2018-09-14T18:12:04.257Z,4.30
2018-09-14T18:14:32.956Z,3.80
2018-09-14T18:17:01.469Z,3.53
2018-09-14T18:19:29.905Z,3.90
2018-09-14T18:21:58.446Z,4.00
2018-09-14T18:24:26.914Z,4.50
2018-09-14T18:26:55.326Z,3.10
2018-09-14T18:29:23.863Z,3.53
2018-09-14T18:31:52.291Z,3.27
2018-09-14T18:34:20.779Z,3.10
2018-09-14T18:36:49.264Z,3.13
2018-09-14T18:39:18.533Z,3.30
2018-09-14T18:41:47.072Z,3.63
2018-09-14T18:44:20.658Z,3.10
2018-09-14T18:46:49.170Z,3.40
2018-09-14T18:49:17.707Z,3.10
2018-09-14T18:51:46.336Z,3.30
2018-09-14T18:54:14.806Z,3.87
2018-09-14T18:56:43.249Z,3.50
2018-09-14T18:59:11.744Z,3.87
2018-09-14T19:01:40.238Z,3.27
2018-09-14T19:04:08.694Z,3.20
2018-09-14T19:06:37.388Z,3.40
2018-09-14T19:09:08.088Z,3.63
2018-09-14T19:11:36.857Z,3.13
2018-09-14T19:14:05.288Z,3.17
2018-09-14T19:16:34.525Z,3.57
2018-09-14T19:19:03.236Z,3.40
2018-09-14T19:21:31.814Z,3.10
2018-09-14T19:24:00.253Z,3.43
2018-09-14T19:26:28.804Z,3.30
2018-09-14T19:28:57.374Z,3.50
2018-09-14T19:31:25.888Z,3.47
2018-09-14T19:33:54.569Z,3.50
2018-09-14T19:36:23.076Z,3.37
2018-09-14T19:38:51.601Z,2.90
2018-09-14T19:41:20.647Z,3.40
2018-09-14T19:43:49.172Z,3.10
2018-09-14T19:46:17.591Z,4.00
2018-09-14T19:48:46.032Z,3.53
2018-09-14T19:51:14.586Z,3.93
2018-09-14T19:53:43.048Z,3.87
2018-09-14T19:56:11.524Z,3.20
2018-09-14T19:58:39.989Z,4.07
2018-09-14T20:01:08.648Z,3.70
2018-09-14T20:03:37.422Z,3.50
2018-09-14T20:06:05.863Z,3.87
2018-09-14T20:08:34.278Z,4.00
2018-09-14T20:11:02.921Z,4.37
2018-09-14T20:13:32.023Z,3.73
2018-09-14T20:16:00.611Z,4.50
2018-09-14T20:18:29.206Z,3.33
2018-09-14T20:20:57.773Z,3.20
2018-09-14T20:23:26.504Z,3.17
2018-09-14T20:25:55.167Z,4.40
2018-09-14T20:28:23.819Z,4.20
2018-09-14T20:30:52.256Z,3.13
2018-09-14T20:33:20.955Z,3.80
2018-09-14T20:35:49.424Z,3.80
2018-09-14T20:38:17.900Z,5.30
2018-09-14T20:40:46.597Z,3.40
2018-09-14T20:43:15.069Z,4.00
2018-09-14T20:45:43.588Z,4.10
2018-09-14T20:48:12.031Z,3.83
2018-09-14T20:50:40.548Z,3.20
2018-09-14T20:53:09.016Z,3.30
2018-09-14T20:55:37.508Z,4.33
2018-09-14T20:58:05.988Z,4.00
2018-09-14T21:00:34.664Z,3.40
2018-09-14T21:03:03.100Z,4.63
2018-09-14T21:05:31.611Z,3.70
2018-09-14T21:08:00.328Z,4.57
2018-09-14T21:10:28.973Z,3.93
2018-09-14T21:12:57.481Z,4.93
2018-09-14T21:15:25.911Z,4.67
2018-09-14T21:17:54.445Z,5.50
2018-09-14T21:20:22.929Z,4.73
2018-09-14T21:22:51.437Z,3.43
2018-09-14T21:25:19.840Z,4.17
2018-09-14T21:27:48.409Z,4.20
2018-09-14T21:30:16.832Z,3.90
2018-09-14T21:32:45.278Z,4.00
2018-09-14T21:35:13.765Z,4.50
2018-09-14T21:37:42.296Z,4.37
2018-09-14T21:40:10.740Z,3.93
2018-09-14T21:42:39.241Z,4.63
2018-09-14T21:45:07.799Z,4.27
2018-09-14T21:47:36.376Z,3.83
2018-09-14T21:50:05.431Z,4.03
2018-09-14T21:52:34.104Z,3.97
2018-09-14T21:55:02.697Z,3.70
2018-09-14T21:57:31.288Z,5.17
2018-09-14T22:00:03.989Z,4.33
2018-09-14T22:02:32.617Z,4.20
2018-09-14T22:05:01.037Z,5.37
2018-09-14T22:07:29.535Z,5.23
2018-09-14T22:09:58.048Z,5.10
2018-09-14T22:12:26.544Z,4.60
2018-09-14T22:14:55.038Z,5.13
2018-09-14T22:17:23.836Z,4.10
2018-09-14T22:19:52.324Z,4.53
2018-09-14T22:22:20.801Z,3.80
2018-09-14T22:24:49.358Z,4.30
2018-09-14T22:27:17.887Z,4.20
2018-09-14T22:29:46.448Z,4.50
2018-09-14T22:32:14.939Z,5.30
2018-09-14T22:34:43.480Z,4.43
2018-09-14T22:37:11.926Z,4.37
2018-09-14T22:39:40.468Z,4.00
2018-09-14T22:42:08.912Z,5.10
2018-09-14T22:44:37.496Z,4.63
2018-09-14T22:47:06.054Z,4.57
2018-09-14T22:49:34.569Z,3.60
2018-09-14T22:52:03.171Z,3.90
2018-09-14T22:54:31.694Z,4.20
2018-09-14T22:57:00.205Z,4.57
2018-09-14T22:59:28.746Z,5.37
2018-09-14T23:01:57.347Z,4.03
2018-09-14T23:04:25.791Z,3.83
2018-09-14T23:06:54.283Z,4.30
2018-09-14T23:09:22.888Z,3.80
2018-09-14T23:11:51.248Z,4.10
2018-09-14T23:14:19.716Z,4.00
2018-09-14T23:16:48.243Z,3.63
2018-09-14T23:19:16.685Z,4.20
2018-09-14T23:21:45.223Z,4.20
2018-09-14T23:24:13.648Z,3.80
2018-09-14T23:26:42.144Z,4.33
2018-09-14T23:29:10.592Z,3.93
2018-09-14T23:31:39.203Z,3.80
2018-09-14T23:34:09.121Z,3.40
2018-09-14T23:36:37.676Z,3.57
2018-09-14T23:39:08.776Z,3.47
2018-09-14T23:41:37.358Z,3.40
2018-09-14T23:44:06.012Z,3.80
2018-09-14T23:46:38.813Z,3.70
2018-09-14T23:49:07.256Z,3.10
2018-09-14T23:51:35.752Z,3.00
2018-09-14T23:54:04.211Z,3.97
2018-09-14T23:56:32.704Z,3.87
2018-09-14T23:59:01.176Z,3.57
